createdAt,value
2023-01-28T00:02:55.455Z,2.60
2023-01-28T00:07:57.932Z,2.65
2023-01-28T00:12:59.403Z,3.28
2023-01-28T00:18:00.771Z,3.00
2023-01-28T00:23:02.410Z,2.60
2023-01-28T00:28:03.750Z,3.08
2023-01-28T00:33:05.140Z,3.80
2023-01-28T00:38:06.583Z,3.25
2023-01-28T00:43:07.933Z,3.72
2023-01-28T00:48:09.541Z,3.15
2023-01-28T00:53:10.935Z,4.20
2023-01-28T00:58:12.631Z,2.70
2023-01-28T01:03:13.964Z,3.45
2023-01-28T01:08:15.480Z,3.72
2023-01-28T01:13:16.804Z,5.47
2023-01-28T01:18:18.715Z,3.35
2023-01-28T01:23:20.219Z,2.90
2023-01-28T01:28:22.535Z,4.70
2023-01-28T01:33:23.878Z,3.03
2023-01-28T01:38:25.997Z,2.95
2023-01-28T01:43:57.230Z,3.85
2023-01-28T01:49:07.508Z,2.58
2023-01-28T01:54:09.059Z,3.40
2023-01-28T01:59:15.582Z,2.80
2023-01-28T02:04:25.342Z,2.20
2023-01-28T02:09:31.968Z,2.92
2023-01-28T02:14:37.623Z,2.35
2023-01-28T02:19:52.202Z,3.63
2023-01-28T02:25:11.722Z,4.55
2023-01-28T02:30:22.254Z,3.33
2023-01-28T02:35:56.119Z,3.33
2023-01-28T02:41:06.003Z,2.55
2023-01-28T02:46:49.354Z,3.00
2023-01-28T02:51:50.812Z,2.92
2023-01-28T02:57:24.745Z,2.97
2023-01-28T03:02:50.732Z,2.40
2023-01-28T03:07:53.722Z,2.53
2023-01-28T03:13:16.596Z,3.67
2023-01-28T03:18:45.679Z,3.00
2023-01-28T03:24:22.161Z,3.42
2023-01-28T03:29:43.033Z,2.97
2023-01-28T03:35:04.550Z,3.58
2023-01-28T03:40:07.644Z,3.33
2023-01-28T03:45:09.580Z,3.58
2023-01-28T03:50:11.208Z,4.95
2023-01-28T03:55:15.805Z,3.45
2023-01-28T04:00:18.390Z,2.78
2023-01-28T04:05:20.690Z,2.92
2023-01-28T04:10:22.223Z,5.60
2023-01-28T04:15:24.035Z,3.45
2023-01-28T04:20:25.394Z,4.43
2023-01-28T04:25:26.852Z,2.83
2023-01-28T04:30:28.263Z,2.78
2023-01-28T04:35:29.725Z,3.63
2023-01-28T04:40:31.051Z,3.13
2023-01-28T04:45:32.407Z,3.30
2023-01-28T04:50:33.951Z,2.67
2023-01-28T04:55:35.415Z,5.50
2023-01-28T05:00:36.949Z,3.30
2023-01-28T05:05:38.288Z,3.83
2023-01-28T05:10:40.465Z,2.83
2023-01-28T05:15:41.876Z,2.75
2023-01-28T05:20:43.426Z,3.30
2023-01-28T05:25:45.994Z,3.38
2023-01-28T05:30:47.372Z,3.65
2023-01-28T05:35:49.756Z,3.95
2023-01-28T05:40:51.146Z,2.78
2023-01-28T05:45:52.583Z,3.22
2023-01-28T05:50:54.010Z,3.55
2023-01-28T05:55:55.540Z,3.53
2023-01-28T06:00:56.894Z,3.08
2023-01-28T06:05:58.227Z,3.05
2023-01-28T06:10:59.767Z,3.03
2023-01-28T06:16:01.692Z,3.15
2023-01-28T06:21:03.655Z,2.15
2023-01-28T06:26:05.054Z,4.15
2023-01-28T06:31:06.903Z,2.28
2023-01-28T06:36:08.487Z,2.20
2023-01-28T06:41:12.804Z,2.88
2023-01-28T06:46:14.251Z,2.20
2023-01-28T06:51:15.754Z,2.67
2023-01-28T06:56:18.330Z,2.50
2023-01-28T07:01:19.751Z,2.80
2023-01-28T07:06:21.100Z,2.30
2023-01-28T07:11:22.587Z,2.45
2023-01-28T07:16:24.183Z,2.00
2023-01-28T07:21:25.705Z,4.22
2023-01-28T07:26:27.194Z,2.00
2023-01-28T07:31:28.639Z,2.63
2023-01-28T07:36:30.108Z,2.10
2023-01-28T07:41:31.408Z,2.92
2023-01-28T07:46:32.903Z,2.67
2023-01-28T07:51:34.372Z,4.50
2023-01-28T07:56:35.808Z,2.35
2023-01-28T08:01:37.234Z,3.65
2023-01-28T08:06:38.891Z,2.50
2023-01-28T08:11:40.645Z,2.65
2023-01-28T08:16:42.172Z,2.33
2023-01-28T08:21:43.692Z,2.40
2023-01-28T08:26:48.623Z,2.53
2023-01-28T08:31:50.208Z,2.65
2023-01-28T08:36:51.711Z,4.38
2023-01-28T08:41:53.107Z,2.42
2023-01-28T08:46:54.630Z,3.60
2023-01-28T08:51:56.259Z,2.67
2023-01-28T08:56:57.654Z,3.55
2023-01-28T09:01:59.089Z,3.70
2023-01-28T09:07:01.863Z,2.53
2023-01-28T09:12:03.294Z,3.78
2023-01-28T09:17:05.535Z,4.65
2023-01-28T09:22:07.007Z,2.63
2023-01-28T09:27:08.473Z,2.85
2023-01-28T09:32:09.846Z,4.07
2023-01-28T09:37:11.887Z,3.63
2023-01-28T09:42:16.261Z,5.65
2023-01-28T09:47:41.431Z,3.40
2023-01-28T09:52:44.072Z,5.00
2023-01-28T09:57:55.555Z,3.65
2023-01-28T10:03:15.247Z,5.53
2023-01-28T10:08:50.553Z,2.97
2023-01-28T10:14:09.393Z,3.10
2023-01-28T10:19:19.929Z,3.90
2023-01-28T10:24:50.573Z,3.60
2023-01-28T10:29:53.113Z,3.42
2023-01-28T10:34:54.731Z,4.15
2023-01-28T10:39:58.279Z,4.38
2023-01-28T10:45:15.776Z,4.35
2023-01-28T10:50:26.778Z,3.13
2023-01-28T10:55:32.023Z,3.88
2023-01-28T11:00:36.887Z,3.00
2023-01-28T11:05:38.289Z,3.75
2023-01-28T11:10:40.494Z,2.40
2023-01-28T11:15:48.278Z,3.13
2023-01-28T11:20:53.471Z,3.03
2023-01-28T11:26:02.352Z,2.80
2023-01-28T11:31:04.443Z,4.07
2023-01-28T11:36:07.781Z,2.80
2023-01-28T11:41:15.804Z,2.83
2023-01-28T11:46:20.606Z,2.33
2023-01-28T11:52:06.254Z,3.40
2023-01-28T11:57:18.859Z,3.25
2023-01-28T12:02:51.838Z,3.50
2023-01-28T12:08:16.544Z,2.80
2023-01-28T12:13:47.232Z,2.07
2023-01-28T12:19:19.681Z,2.33
2023-01-28T12:24:55.989Z,3.80
2023-01-28T12:30:15.516Z,2.03
2023-01-28T12:35:51.086Z,2.47
2023-01-28T12:40:53.401Z,3.30
2023-01-28T12:46:03.534Z,1.52
2023-01-28T12:51:14.392Z,2.45
2023-01-28T12:56:20.164Z,2.20
2023-01-28T13:01:29.955Z,2.40
2023-01-28T13:06:41.492Z,2.60
2023-01-28T13:11:43.773Z,3.13
2023-01-28T13:16:45.207Z,6.32
2023-01-28T13:21:49.585Z,6.80
2023-01-28T13:27:12.449Z,3.90
2023-01-28T13:32:35.413Z,6.03
2023-01-28T13:37:43.799Z,4.93
2023-01-28T13:42:45.680Z,2.75
2023-01-28T13:47:51.597Z,3.35
2023-01-28T13:53:20.149Z,2.65
2023-01-28T13:58:44.492Z,5.00
2023-01-28T14:04:06.377Z,3.42
2023-01-28T14:09:47.479Z,2.70
2023-01-28T14:15:12.336Z,2.42
2023-01-28T14:20:27.569Z,3.40
2023-01-28T14:31:14.423Z,3.78
2023-01-28T14:36:16.206Z,2.58
2023-01-28T14:41:26.035Z,1.98
2023-01-28T14:46:44.762Z,2.35
2023-01-28T14:51:52.327Z,2.22
2023-01-28T14:57:03.896Z,2.53
2023-01-28T15:02:21.383Z,2.72
2023-01-28T15:07:25.309Z,2.83
2023-01-28T15:12:27.104Z,4.20
2023-01-28T15:17:28.486Z,4.22
2023-01-28T15:22:30.180Z,4.13
2023-01-28T15:27:32.662Z,2.15
2023-01-28T15:32:33.971Z,2.97
2023-01-28T15:37:35.654Z,2.75
2023-01-28T15:42:38.722Z,2.55
2023-01-28T15:47:40.114Z,2.00
2023-01-28T15:52:45.393Z,2.58
2023-01-28T15:57:46.894Z,3.70
2023-01-28T16:02:53.876Z,3.60
2023-01-28T16:07:57.046Z,7.10
2023-01-28T16:13:06.089Z,5.05
2023-01-28T16:18:07.750Z,11.18
2023-01-28T16:23:22.445Z,4.78
2023-01-28T16:28:23.787Z,4.10
2023-01-28T16:33:26.153Z,5.30
2023-01-28T16:38:27.735Z,6.63
2023-01-28T16:43:29.356Z,4.72
2023-01-28T16:48:30.801Z,5.25
2023-01-28T16:53:33.911Z,5.07
2023-01-28T16:58:35.332Z,4.93
2023-01-28T17:03:36.662Z,4.35
2023-01-28T17:08:38.309Z,5.43
2023-01-28T17:13:40.419Z,5.72
2023-01-28T17:18:42.078Z,6.05
2023-01-28T17:23:43.829Z,9.07
2023-01-28T17:28:45.438Z,8.55
2023-01-28T17:33:47.074Z,7.28
2023-01-28T17:38:48.674Z,6.57
2023-01-28T17:43:51.515Z,8.68
2023-01-28T17:48:53.344Z,6.20
2023-01-28T17:53:54.800Z,12.23
2023-01-28T17:59:06.622Z,8.63
2023-01-28T18:04:07.978Z,6.57
2023-01-28T18:09:10.384Z,6.68
2023-01-28T18:14:11.961Z,6.22
2023-01-28T18:19:13.265Z,6.90
2023-01-28T18:24:14.831Z,6.05
2023-01-28T18:29:20.299Z,5.25
2023-01-28T18:34:26.801Z,8.13
2023-01-28T18:39:31.494Z,8.05
2023-01-28T18:44:33.061Z,6.57
2023-01-28T18:49:34.499Z,7.47
2023-01-28T18:54:36.467Z,8.52
2023-01-28T18:59:37.784Z,8.50
2023-01-28T19:04:39.093Z,6.53
2023-01-28T19:09:40.514Z,6.57
2023-01-28T19:14:42.019Z,9.75
2023-01-28T19:19:43.418Z,9.18
2023-01-28T19:24:44.874Z,9.38
2023-01-28T19:29:46.504Z,7.55
2023-01-28T19:34:47.893Z,6.40
2023-01-28T19:39:49.345Z,9.50
2023-01-28T19:44:51.166Z,8.52
2023-01-28T19:49:52.539Z,7.28
2023-01-28T19:54:53.891Z,10.55
2023-01-28T19:59:55.376Z,6.78
2023-01-28T20:05:00.980Z,9.05
2023-01-28T20:10:02.825Z,6.80
2023-01-28T20:15:04.459Z,4.72
2023-01-28T20:20:06.671Z,6.20
2023-01-28T20:25:09.070Z,6.55
2023-01-28T20:30:11.223Z,8.05
2023-01-28T20:35:12.853Z,7.68
2023-01-28T20:40:14.517Z,5.10
2023-01-28T20:45:16.243Z,8.70
2023-01-28T20:50:18.383Z,5.45
2023-01-28T20:55:20.037Z,5.63
2023-01-28T21:00:21.914Z,5.60
2023-01-28T21:05:23.512Z,6.50
2023-01-28T21:10:25.065Z,8.75
2023-01-28T21:15:26.521Z,35.53
2023-01-28T21:20:29.683Z,45.85
2023-01-28T21:25:32.502Z,6.75
2023-01-28T21:30:33.838Z,5.88
2023-01-28T21:35:43.347Z,4.80
2023-01-28T21:40:44.666Z,5.43
2023-01-28T21:45:48.346Z,5.00
2023-01-28T21:51:08.746Z,5.28
2023-01-28T21:56:10.100Z,6.90
2023-01-28T22:01:11.546Z,5.75
2023-01-28T22:06:12.931Z,5.15
2023-01-28T22:11:14.426Z,7.40
2023-01-28T22:16:16.743Z,7.50
2023-01-28T22:21:18.102Z,10.48
2023-01-28T22:26:19.657Z,5.78
2023-01-28T22:31:21.077Z,6.72
2023-01-28T22:36:22.950Z,5.82
2023-01-28T22:41:24.801Z,6.00
2023-01-28T22:46:26.296Z,6.43
2023-01-28T22:51:30.763Z,5.95
2023-01-28T22:56:32.222Z,6.93
2023-01-28T23:01:33.897Z,7.32
2023-01-28T23:06:37.053Z,6.63
2023-01-28T23:11:38.389Z,6.93
2023-01-28T23:16:58.318Z,5.68
2023-01-28T23:22:18.769Z,5.40
2023-01-28T23:27:20.150Z,6.68
2023-01-28T23:32:22.430Z,6.13
2023-01-28T23:37:23.810Z,4.75
2023-01-28T23:42:25.904Z,5.10
2023-01-28T23:47:27.740Z,5.63
2023-01-28T23:52:29.351Z,5.80
2023-01-28T23:57:30.853Z,5.85
